sensor_id;sensor_type;location;lat;lon;timestamp;pressure;altitude;pressure_sealevel;temperature;humidity
21433;BME280;18592;49.708;10.900;2022-12-01T00:00:08;99284.41;;;8.09;56.82
21433;BME280;18592;49.708;10.900;2022-12-01T00:02:10;99280.63;;;8.10;56.62
21433;BME280;18592;49.708;10.900;2022-12-01T00:04:14;99280.22;;;8.06;56.94
21433;BME280;18592;49.708;10.900;2022-12-01T00:06:19;99279.41;;;8.06;56.95
21433;BME280;18592;49.708;10.900;2022-12-01T00:08:21;99278.34;;;8.07;56.83
21433;BME280;18592;49.708;10.900;2022-12-01T00:10:24;99274.81;;;8.06;56.82
21433;BME280;18592;49.708;10.900;2022-12-01T00:12:29;99279.41;;;8.06;56.91
21433;BME280;18592;49.708;10.900;2022-12-01T00:14:31;99279.41;;;8.06;57.06
21433;BME280;18592;49.708;10.900;2022-12-01T00:16:33;99274.81;;;8.06;56.57
21433;BME280;18592;49.708;10.900;2022-12-01T00:18:35;99274.81;;;8.06;56.89
21433;BME280;18592;49.708;10.900;2022-12-01T00:20:36;99274.81;;;8.06;56.91
21433;BME280;18592;49.708;10.900;2022-12-01T00:22:43;99278.34;;;8.07;57.20
21433;BME280;18592;49.708;10.900;2022-12-01T00:24:45;99278.34;;;8.07;56.94
21433;BME280;18592;49.708;10.900;2022-12-01T00:26:47;99282.72;;;8.08;56.64
21433;BME280;18592;49.708;10.900;2022-12-01T00:28:50;99278.34;;;8.07;56.54
21433;BME280;18592;49.708;10.900;2022-12-01T00:30:52;99277.72;;;8.05;56.45
21433;BME280;18592;49.708;10.900;2022-12-01T00:32:53;99276.28;;;8.02;57.27
21433;BME280;18592;49.708;10.900;2022-12-01T00:34:55;99278.97;;;8.02;56.64
21433;BME280;18592;49.708;10.900;2022-12-01T00:36:56;99276.06;;;8.04;56.80
21433;BME280;18592;49.708;10.900;2022-12-01T00:38:58;99279.63;;;8.04;56.72
21433;BME280;18592;49.708;10.900;2022-12-01T00:41:00;99287.78;;;8.04;56.92
21433;BME280;18592;49.708;10.900;2022-12-01T00:43:02;99279.63;;;8.04;56.78
21433;BME280;18592;49.708;10.900;2022-12-01T00:45:04;99283.16;;;8.05;56.70
21433;BME280;18592;49.708;10.900;2022-12-01T00:47:06;99278.97;;;8.02;56.89
21433;BME280;18592;49.708;10.900;2022-12-01T00:49:11;99286.09;;;8.03;56.60
21433;BME280;18592;49.708;10.900;2022-12-01T00:51:13;99281.69;;;8.02;56.93
21433;BME280;18592;49.708;10.900;2022-12-01T00:53:14;99287.78;;;8.04;56.79
21433;BME280;18592;49.708;10.900;2022-12-01T00:55:16;99295.69;;;8.06;56.57
21433;BME280;18592;49.708;10.900;2022-12-01T00:57:21;99291.94;;;8.07;56.75
21433;BME280;18592;49.708;10.900;2022-12-01T00:59:23;99292.75;;;8.07;56.62
21433;BME280;18592;49.708;10.900;2022-12-01T01:01:25;99296.53;;;8.06;56.78
21433;BME280;18592;49.708;10.900;2022-12-01T01:03:28;99292.75;;;8.07;57.04
21433;BME280;18592;49.708;10.900;2022-12-01T01:05:34;99295.25;;;8.09;56.74
21433;BME280;18592;49.708;10.900;2022-12-01T01:07:36;99291.72;;;8.08;56.90
21433;BME280;18592;49.708;10.900;2022-12-01T01:09:37;99292.53;;;8.09;57.02
21433;BME280;18592;49.708;10.900;2022-12-01T01:11:40;99287.13;;;8.09;56.81
21433;BME280;18592;49.708;10.900;2022-12-01T01:13:43;99285.25;;;8.09;56.90
21433;BME280;18592;49.708;10.900;2022-12-01T01:15:56;99290.66;;;8.09;56.89
21433;BME280;18592;49.708;10.900;2022-12-01T01:17:59;99293.16;;;8.11;56.73
21433;BME280;18592;49.708;10.900;2022-12-01T01:20:01;99291.47;;;8.10;56.78
21433;BME280;18592;49.708;10.900;2022-12-01T01:22:05;99290.66;;;8.09;56.96
21433;BME280;18592;49.708;10.900;2022-12-01T01:24:07;99293.59;;;8.08;56.83
21433;BME280;18592;49.708;10.900;2022-12-01T01:26:21;99296.09;;;8.09;57.08
21433;BME280;18592;49.708;10.900;2022-12-01T01:28:23;99297.75;;;8.10;56.91
21433;BME280;18592;49.708;10.900;2022-12-01T01:30:25;99298.59;;;8.11;56.79
21433;BME280;18592;49.708;10.900;2022-12-01T01:32:27;99300.25;;;8.12;57.19
21433;BME280;18592;49.708;10.900;2022-12-01T01:34:32;99294.59;;;8.13;56.88
21433;BME280;18592;49.708;10.900;2022-12-01T01:36:33;99302.75;;;8.13;56.77
21433;BME280;18592;49.708;10.900;2022-12-01T01:38:35;99297.53;;;8.12;56.93
21433;BME280;18592;49.708;10.900;2022-12-01T01:40:45;99291.03;;;8.13;56.70
21433;BME280;18592;49.708;10.900;2022-12-01T01:42:49;99288.13;;;8.14;56.86
21433;BME280;18592;49.708;10.900;2022-12-01T01:44:53;99293.75;;;8.13;56.68
21433;BME280;18592;49.708;10.900;2022-12-01T01:46:55;99294.00;;;8.11;56.75
21433;BME280;18592;49.708;10.900;2022-12-01T01:49:11;99300.47;;;8.10;56.37
21433;BME280;18592;49.708;10.900;2022-12-01T01:51:16;99298.81;;;8.09;56.92
21433;BME280;18592;49.708;10.900;2022-12-01T01:53:23;99299.00;;;8.08;56.68
21433;BME280;18592;49.708;10.900;2022-12-01T01:55:26;99299.84;;;8.08;56.75
21433;BME280;18592;49.708;10.900;2022-12-01T01:57:31;99308.00;;;8.08;56.88
21433;BME280;18592;49.708;10.900;2022-12-01T01:59:42;99303.41;;;8.09;56.75
21433;BME280;18592;49.708;10.900;2022-12-01T02:01:47;99306.31;;;8.07;56.91
21433;BME280;18592;49.708;10.900;2022-12-01T02:03:52;99305.88;;;8.10;56.66
21433;BME280;18592;49.708;10.900;2022-12-01T02:05:57;99308.00;;;8.08;56.61
21433;BME280;18592;49.708;10.900;2022-12-01T02:08:06;99314.47;;;8.07;56.96
21433;BME280;18592;49.708;10.900;2022-12-01T02:10:13;99307.38;;;8.06;56.75
21433;BME280;18592;49.708;10.900;2022-12-01T02:14:46;99306.13;;;8.02;56.73
21433;BME280;18592;49.708;10.900;2022-12-01T02:17:00;99311.38;;;8.04;56.63
21433;BME280;18592;49.708;10.900;2022-12-01T02:24:49;99295.50;;;8.01;56.94
21433;BME280;18592;49.708;10.900;2022-12-01T02:27:01;99290.06;;;8.01;57.14
21433;BME280;18592;49.708;10.900;2022-12-01T02:34:04;99285.69;;;8.00;56.88
21433;BME280;18592;49.708;10.900;2022-12-01T02:36:15;99282.78;;;8.01;56.87
21433;BME280;18592;49.708;10.900;2022-12-01T02:38:24;99285.25;;;8.03;56.77
21433;BME280;18592;49.708;10.900;2022-12-01T02:40:42;99289.03;;;8.02;56.69
21433;BME280;18592;49.708;10.900;2022-12-01T02:43:02;99278.19;;;8.02;56.77
21433;BME280;18592;49.708;10.900;2022-12-01T02:45:10;99289.03;;;8.02;56.90
21433;BME280;18592;49.708;10.900;2022-12-01T02:47:15;99274.41;;;8.03;57.18
21433;BME280;18592;49.708;10.900;2022-12-01T02:49:23;99281.50;;;8.04;56.81
21433;BME280;18592;49.708;10.900;2022-12-01T02:51:31;99276.91;;;8.04;56.78
21433;BME280;18592;49.708;10.900;2022-12-01T02:53:34;99278.56;;;8.05;56.85
21433;BME280;18592;49.708;10.900;2022-12-01T02:55:45;99270.22;;;8.07;56.74
21433;BME280;18592;49.708;10.900;2022-12-01T02:57:47;99272.69;;;8.08;57.05
21433;BME280;18592;49.708;10.900;2022-12-01T02:59:52;99274.56;;;8.08;56.91
21433;BME280;18592;49.708;10.900;2022-12-01T03:08:50;99267.28;;;8.08;56.54
21433;BME280;18592;49.708;10.900;2022-12-01T03:10:55;99267.28;;;8.08;56.93
21433;BME280;18592;49.708;10.900;2022-12-01T03:13:19;99264.78;;;8.07;56.85
21433;BME280;18592;49.708;10.900;2022-12-01T03:20:24;99268.31;;;8.07;56.62
21433;BME280;18592;49.708;10.900;2022-12-01T03:22:40;99263.50;;;8.09;56.47
21433;BME280;18592;49.708;10.900;2022-12-01T03:24:46;99257.44;;;8.07;56.81
21433;BME280;18592;49.708;10.900;2022-12-01T03:26:53;99250.97;;;8.08;56.82
21433;BME280;18592;49.708;10.900;2022-12-01T03:29:08;99254.13;;;8.05;56.82
21433;BME280;18592;49.708;10.900;2022-12-01T03:31:15;99253.09;;;8.06;56.82
21433;BME280;18592;49.708;10.900;2022-12-01T03:33:23;99260.16;;;8.07;56.56
21433;BME280;18592;49.708;10.900;2022-12-01T03:35:35;99260.16;;;8.07;56.63
21433;BME280;18592;49.708;10.900;2022-12-01T03:37:40;99257.69;;;8.06;56.65
21433;BME280;18592;49.708;10.900;2022-12-01T03:39:46;99254.97;;;8.06;56.87
21433;BME280;18592;49.708;10.900;2022-12-01T03:41:57;99263.34;;;8.04;56.63
21433;BME280;18592;49.708;10.900;2022-12-01T03:44:08;99258.72;;;8.05;56.86
21433;BME280;18592;49.708;10.900;2022-12-01T03:46:30;99254.13;;;8.05;56.80
21433;BME280;18592;49.708;10.900;2022-12-01T03:48:33;99263.94;;;8.06;56.74
21433;BME280;18592;49.708;10.900;2022-12-01T03:50:43;99258.50;;;8.06;56.76
21433;BME280;18592;49.708;10.900;2022-12-01T03:53:05;99256.63;;;8.07;56.74
21433;BME280;18592;49.708;10.900;2022-12-01T03:55:17;99257.44;;;8.07;56.61
21433;BME280;18592;49.708;10.900;2022-12-01T03:57:25;99254.72;;;8.07;56.79
21433;BME280;18592;49.708;10.900;2022-12-01T03:59:28;99250.97;;;8.08;56.79
21433;BME280;18592;49.708;10.900;2022-12-01T04:01:32;99259.97;;;8.09;56.81
21433;BME280;18592;49.708;10.900;2022-12-01T04:03:37;99259.13;;;8.08;56.91
21433;BME280;18592;49.708;10.900;2022-12-01T04:05:39;99260.16;;;8.07;57.14
21433;BME280;18592;49.708;10.900;2022-12-01T04:07:40;99258.09;;;8.09;56.67
21433;BME280;18592;49.708;10.900;2022-12-01T04:09:42;99257.03;;;8.10;56.66
21433;BME280;18592;49.708;10.900;2022-12-01T04:11:44;99259.72;;;8.10;56.71
21433;BME280;18592;49.708;10.900;2022-12-01T04:14:04;99259.13;;;8.08;56.72
21433;BME280;18592;49.708;10.900;2022-12-01T04:16:11;99256.41;;;8.08;56.74
21433;BME280;18592;49.708;10.900;2022-12-01T04:18:13;99260.81;;;8.09;56.68
21433;BME280;18592;49.708;10.900;2022-12-01T04:20:16;99262.44;;;8.10;56.80
21433;BME280;18592;49.708;10.900;2022-12-01T04:22:18;99259.72;;;8.10;56.67
21433;BME280;18592;49.708;10.900;2022-12-01T04:24:20;99266.84;;;8.11;56.94
21433;BME280;18592;49.708;10.900;2022-12-01T04:26:21;99262.25;;;8.12;56.89
21433;BME280;18592;49.708;10.900;2022-12-01T04:28:23;99266.84;;;8.11;56.95
21433;BME280;18592;49.708;10.900;2022-12-01T04:30:25;99254.09;;;8.12;56.67
21433;BME280;18592;49.708;10.900;2022-12-01T04:32:27;99266.59;;;8.13;56.79
21433;BME280;18592;49.708;10.900;2022-12-01T04:34:29;99258.47;;;8.13;56.59
21433;BME280;18592;49.708;10.900;2022-12-01T04:36:32;99266.59;;;8.13;56.82
21433;BME280;18592;49.708;10.900;2022-12-01T04:38:34;99272.28;;;8.11;56.72
21433;BME280;18592;49.708;10.900;2022-12-01T04:40:37;99263.06;;;8.12;56.64
21433;BME280;18592;49.708;10.900;2022-12-01T04:42:39;99255.75;;;8.13;56.58
21433;BME280;18592;49.708;10.900;2022-12-01T04:44:41;99261.41;;;8.11;56.95
21433;BME280;18592;49.708;10.900;2022-12-01T04:46:42;99249.72;;;8.11;56.66
21433;BME280;18592;49.708;10.900;2022-12-01T04:48:45;99239.69;;;8.11;57.05
21433;BME280;18592;49.708;10.900;2022-12-01T04:50:48;99241.34;;;8.12;56.81
21433;BME280;18592;49.708;10.900;2022-12-01T04:52:52;99243.25;;;8.12;56.92
21433;BME280;18592;49.708;10.900;2022-12-01T04:54:54;99252.19;;;8.12;57.14
21433;BME280;18592;49.708;10.900;2022-12-01T04:56:56;99258.25;;;8.14;57.02
21433;BME280;18592;49.708;10.900;2022-12-01T04:58:58;99260.97;;;8.14;56.68
21433;BME280;18592;49.708;10.900;2022-12-01T05:01:07;99257.63;;;8.12;56.58
21433;BME280;18592;49.708;10.900;2022-12-01T05:03:13;99256.81;;;8.12;56.29
21433;BME280;18592;49.708;10.900;2022-12-01T05:05:15;99261.41;;;8.11;56.62
21433;BME280;18592;49.708;10.900;2022-12-01T05:07:17;99263.06;;;8.12;56.86
21433;BME280;18592;49.708;10.900;2022-12-01T05:09:19;99265.78;;;8.12;56.85
21433;BME280;18592;49.708;10.900;2022-12-01T05:11:22;99266.59;;;8.13;56.49
21433;BME280;18592;49.708;10.900;2022-12-01T05:13:24;99271.19;;;8.12;56.65
21433;BME280;18592;49.708;10.900;2022-12-01T05:15:26;99269.31;;;8.13;56.74
21433;BME280;18592;49.708;10.900;2022-12-01T05:17:30;99272.03;;;8.13;56.86
21433;BME280;18592;49.708;10.900;2022-12-01T05:19:37;99270.16;;;8.13;56.86
21433;BME280;18592;49.708;10.900;2022-12-01T05:21:57;99268.50;;;8.12;56.71
21433;BME280;18592;49.708;10.900;2022-12-01T05:23:59;99268.72;;;8.11;56.73
21433;BME280;18592;49.708;10.900;2022-12-01T05:26:02;99268.50;;;8.12;56.62
21433;BME280;18592;49.708;10.900;2022-12-01T05:28:04;99273.91;;;8.12;56.71
21433;BME280;18592;49.708;10.900;2022-12-01T05:30:07;99263.06;;;8.12;56.76
21433;BME280;18592;49.708;10.900;2022-12-01T05:32:08;99263.06;;;8.12;56.93
21433;BME280;18592;49.708;10.900;2022-12-01T05:34:10;99267.69;;;8.12;57.05
21433;BME280;18592;49.708;10.900;2022-12-01T05:36:12;99264.97;;;8.12;56.68
21433;BME280;18592;49.708;10.900;2022-12-01T05:38:14;99254.31;;;8.10;56.89
21433;BME280;18592;49.708;10.900;2022-12-01T05:40:16;99255.97;;;8.11;56.92
21433;BME280;18592;49.708;10.900;2022-12-01T05:42:18;99255.97;;;8.11;56.79
21433;BME280;18592;49.708;10.900;2022-12-01T05:44:19;99254.91;;;8.12;57.06
21433;BME280;18592;49.708;10.900;2022-12-01T05:46:21;99258.47;;;8.13;56.71
21433;BME280;18592;49.708;10.900;2022-12-01T05:48:24;99256.81;;;8.12;56.88
21433;BME280;18592;49.708;10.900;2022-12-01T05:50:27;99261.19;;;8.13;56.54
21433;BME280;18592;49.708;10.900;2022-12-01T05:52:29;99256.81;;;8.12;56.87
21433;BME280;18592;49.708;10.900;2022-12-01T05:54:30;99264.72;;;8.13;56.80
21433;BME280;18592;49.708;10.900;2022-12-01T05:56:32;99264.50;;;8.15;56.66
21433;BME280;18592;49.708;10.900;2022-12-01T05:58:34;99253.88;;;8.13;56.60
21433;BME280;18592;49.708;10.900;2022-12-01T06:00:37;99254.91;;;8.12;56.79
21433;BME280;18592;49.708;10.900;2022-12-01T06:02:46;99254.91;;;8.12;56.56
21433;BME280;18592;49.708;10.900;2022-12-01T06:04:48;99249.47;;;8.12;56.74
21433;BME280;18592;49.708;10.900;2022-12-01T06:06:50;99244.06;;;8.12;56.65
21433;BME280;18592;49.708;10.900;2022-12-01T06:08:52;99246.75;;;8.12;56.63
21433;BME280;18592;49.708;10.900;2022-12-01T06:10:53;99252.19;;;8.12;56.85
21433;BME280;18592;49.708;10.900;2022-12-01T06:12:55;99252.19;;;8.12;56.63
21433;BME280;18592;49.708;10.900;2022-12-01T06:14:57;99254.91;;;8.12;56.57
21433;BME280;18592;49.708;10.900;2022-12-01T06:16:59;99255.97;;;8.11;56.63
21433;BME280;18592;49.708;10.900;2022-12-01T06:19:01;99258.69;;;8.11;56.82
21433;BME280;18592;49.708;10.900;2022-12-01T06:21:04;99261.41;;;8.11;56.57
21433;BME280;18592;49.708;10.900;2022-12-01T06:23:06;99254.09;;;8.12;56.52
21433;BME280;18592;49.708;10.900;2022-12-01T06:25:09;99256.81;;;8.12;56.66
21433;BME280;18592;49.708;10.900;2022-12-01T06:27:13;99261.41;;;8.11;56.54
21433;BME280;18592;49.708;10.900;2022-12-01T06:29:14;99261.41;;;8.11;56.86
21433;BME280;18592;49.708;10.900;2022-12-01T06:31:16;99256.19;;;8.10;56.25
21433;BME280;18592;49.708;10.900;2022-12-01T06:33:18;99268.72;;;8.11;56.54
21433;BME280;18592;49.708;10.900;2022-12-01T06:35:20;99274.38;;;8.09;56.52
21433;BME280;18592;49.708;10.900;2022-12-01T06:37:22;99274.38;;;8.09;56.49
21433;BME280;18592;49.708;10.900;2022-12-01T06:39:23;99278.13;;;8.08;56.58
21433;BME280;18592;49.708;10.900;2022-12-01T06:41:25;99283.56;;;8.08;56.52
21433;BME280;18592;49.708;10.900;2022-12-01T06:43:27;99275.66;;;8.07;56.54
21433;BME280;18592;49.708;10.900;2022-12-01T06:45:29;99271.47;;;8.04;56.66
21433;BME280;18592;49.708;10.900;2022-12-01T06:47:31;99281.50;;;8.04;56.62
21433;BME280;18592;49.708;10.900;2022-12-01T06:49:33;99272.75;;;8.02;56.74
21433;BME280;18592;49.708;10.900;2022-12-01T06:51:35;99278.97;;;8.02;56.68
21433;BME280;18592;49.708;10.900;2022-12-01T06:53:37;99276.28;;;8.02;56.51
21433;BME280;18592;49.708;10.900;2022-12-01T06:55:39;99271.91;;;8.01;56.82
21433;BME280;18592;49.708;10.900;2022-12-01T06:57:41;99274.63;;;8.01;56.65
21433;BME280;18592;49.708;10.900;2022-12-01T06:59:44;99277.34;;;8.01;56.85
21433;BME280;18592;49.708;10.900;2022-12-01T07:01:46;99280.06;;;8.01;56.92
21433;BME280;18592;49.708;10.900;2022-12-01T07:03:48;99277.34;;;8.01;56.63
21433;BME280;18592;49.708;10.900;2022-12-01T07:05:56;99277.78;;;7.98;56.94
21433;BME280;18592;49.708;10.900;2022-12-01T07:07:59;99273.38;;;7.97;56.94
21433;BME280;18592;49.708;10.900;2022-12-01T07:10:02;99283.19;;;7.98;56.91
21433;BME280;18592;49.708;10.900;2022-12-01T07:12:04;99282.16;;;7.99;56.97
21433;BME280;18592;49.708;10.900;2022-12-01T07:14:27;99288.00;;;7.96;56.72
21433;BME280;18592;49.708;10.900;2022-12-01T07:16:29;99280.47;;;7.98;56.83
21433;BME280;18592;49.708;10.900;2022-12-01T07:18:31;99293.81;;;8.00;56.93
21433;BME280;18592;49.708;10.900;2022-12-01T07:20:33;99282.16;;;7.99;57.01
21433;BME280;18592;49.708;10.900;2022-12-01T07:22:34;99284.88;;;7.99;56.89
21433;BME280;18592;49.708;10.900;2022-12-01T07:24:36;99283.81;;;8.00;56.89
21433;BME280;18592;49.708;10.900;2022-12-01T07:26:39;99281.09;;;8.00;56.96
21433;BME280;18592;49.708;10.900;2022-12-01T07:28:42;99284.88;;;7.99;56.98
21433;BME280;18592;49.708;10.900;2022-12-01T07:30:43;99290.31;;;7.99;57.04
21433;BME280;18592;49.708;10.900;2022-12-01T07:32:45;99284.88;;;7.99;56.90
21433;BME280;18592;49.708;10.900;2022-12-01T07:34:47;99290.91;;;8.01;57.10
21433;BME280;18592;49.708;10.900;2022-12-01T07:36:48;99289.03;;;8.02;57.06
21433;BME280;18592;49.708;10.900;2022-12-01T07:38:50;99290.06;;;8.01;57.25
21433;BME280;18592;49.708;10.900;2022-12-01T07:40:51;99284.41;;;8.02;57.13
21433;BME280;18592;49.708;10.900;2022-12-01T07:42:53;99291.28;;;8.05;56.88
21433;BME280;18592;49.708;10.900;2022-12-01T07:44:55;99289.66;;;8.04;56.80
21433;BME280;18592;49.708;10.900;2022-12-01T07:46:56;99292.13;;;8.05;57.00
21433;BME280;18592;49.708;10.900;2022-12-01T07:48:58;99291.09;;;8.06;57.05
21433;BME280;18592;49.708;10.900;2022-12-01T07:51:01;99290.50;;;8.04;57.02
21433;BME280;18592;49.708;10.900;2022-12-01T07:53:03;99285.66;;;8.06;57.16
21433;BME280;18592;49.708;10.900;2022-12-01T07:55:05;99281.88;;;8.07;57.32
21433;BME280;18592;49.708;10.900;2022-12-01T07:57:07;99288.16;;;8.08;57.01
21433;BME280;18592;49.708;10.900;2022-12-01T07:59:08;99281.88;;;8.07;57.12
21433;BME280;18592;49.708;10.900;2022-12-01T08:01:14;99291.72;;;8.08;57.09
21433;BME280;18592;49.708;10.900;2022-12-01T08:03:16;99286.28;;;8.08;57.40
21433;BME280;18592;49.708;10.900;2022-12-01T08:05:18;99285.25;;;8.09;57.09
21433;BME280;18592;49.708;10.900;2022-12-01T08:07:20;99284.16;;;8.10;57.15
21433;BME280;18592;49.708;10.900;2022-12-01T08:09:21;99289.41;;;8.12;57.38
21433;BME280;18592;49.708;10.900;2022-12-01T08:11:27;99282.69;;;8.14;57.30
21433;BME280;18592;49.708;10.900;2022-12-01T08:13:30;99284.34;;;8.15;57.35
21433;BME280;18592;49.708;10.900;2022-12-01T08:15:32;99288.75;;;8.16;57.24
21433;BME280;18592;49.708;10.900;2022-12-01T08:17:33;99286.88;;;8.17;57.42
21433;BME280;18592;49.708;10.900;2022-12-01T08:19:35;99283.69;;;8.20;57.40
21433;BME280;18592;49.708;10.900;2022-12-01T08:21:37;99287.25;;;8.20;57.25
21433;BME280;18592;49.708;10.900;2022-12-01T08:23:39;99281.63;;;8.22;57.36
21433;BME280;18592;49.708;10.900;2022-12-01T08:25:42;99290.56;;;8.22;57.22
21433;BME280;18592;49.708;10.900;2022-12-01T08:27:44;99283.88;;;8.25;57.38
21433;BME280;18592;49.708;10.900;2022-12-01T08:29:46;99285.34;;;8.27;57.48
21433;BME280;18592;49.708;10.900;2022-12-01T08:31:48;99278.88;;;8.28;57.52
21433;BME280;18592;49.708;10.900;2022-12-01T08:33:50;99285.53;;;8.32;57.55
21433;BME280;18592;49.708;10.900;2022-12-01T08:35:55;99283.44;;;8.35;57.25
21433;BME280;18592;49.708;10.900;2022-12-01T08:37:57;99287.38;;;8.39;57.50
21433;BME280;18592;49.708;10.900;2022-12-01T08:39:58;99288.59;;;8.43;57.78
21433;BME280;18592;49.708;10.900;2022-12-01T08:42:00;99283.56;;;8.46;57.50
21433;BME280;18592;49.708;10.900;2022-12-01T08:44:02;99296.47;;;8.51;57.82
21433;BME280;18592;49.708;10.900;2022-12-01T08:46:05;99297.72;;;8.55;57.45
21433;BME280;18592;49.708;10.900;2022-12-01T08:48:07;99301.66;;;8.59;57.62
21433;BME280;18592;49.708;10.900;2022-12-01T08:50:09;99299.09;;;8.64;57.91
21433;BME280;18592;49.708;10.900;2022-12-01T08:52:11;99290.28;;;8.68;57.70
21433;BME280;18592;49.708;10.900;2022-12-01T08:54:13;99298.63;;;8.73;57.66
21433;BME280;18592;49.708;10.900;2022-12-01T08:56:21;99295.47;;;8.76;57.33
21433;BME280;18592;49.708;10.900;2022-12-01T08:58:24;99295.88;;;8.80;57.31
21433;BME280;18592;49.708;10.900;2022-12-01T09:00:26;99301.66;;;8.83;57.41
21433;BME280;18592;49.708;10.900;2022-12-01T09:02:28;99303.09;;;8.86;57.30
21433;BME280;18592;49.708;10.900;2022-12-01T09:04:30;99306.44;;;8.88;57.14
21433;BME280;18592;49.708;10.900;2022-12-01T09:06:34;99303.50;;;8.89;57.50
21433;BME280;18592;49.708;10.900;2022-12-01T09:08:38;99300.56;;;8.91;57.45
21433;BME280;18592;49.708;10.900;2022-12-01T09:10:39;99303.06;;;8.92;57.45
21433;BME280;18592;49.708;10.900;2022-12-01T09:12:41;99311.00;;;8.94;57.13
21433;BME280;18592;49.708;10.900;2022-12-01T09:14:44;99304.72;;;8.93;57.59
21433;BME280;18592;49.708;10.900;2022-12-01T09:16:50;99302.84;;;8.94;57.42
21433;BME280;18592;49.708;10.900;2022-12-01T09:18:52;99311.59;;;8.96;56.96
21433;BME280;18592;49.708;10.900;2022-12-01T09:20:55;99310.56;;;8.97;57.12
21433;BME280;18592;49.708;10.900;2022-12-01T09:22:58;99304.88;;;8.99;57.25
21433;BME280;18592;49.708;10.900;2022-12-01T09:24:59;99297.56;;;8.99;57.05
21433;BME280;18592;49.708;10.900;2022-12-01T09:27:01;99306.31;;;9.01;57.51
21433;BME280;18592;49.708;10.900;2022-12-01T09:29:06;99299.84;;;9.02;56.84
21433;BME280;18592;49.708;10.900;2022-12-01T09:31:13;99299.59;;;9.04;57.29
21433;BME280;18592;49.708;10.900;2022-12-01T09:33:15;99305.69;;;9.06;57.31
21433;BME280;18592;49.708;10.900;2022-12-01T09:35:17;99304.59;;;9.07;57.20
21433;BME280;18592;49.708;10.900;2022-12-01T09:37:24;99301.69;;;9.08;57.48
21433;BME280;18592;49.708;10.900;2022-12-01T09:39:27;99309.59;;;9.10;57.46
21433;BME280;18592;49.708;10.900;2022-12-01T09:41:31;99297.44;;;9.12;57.29
21433;BME280;18592;49.708;10.900;2022-12-01T09:43:43;99299.94;;;9.14;57.16
21433;BME280;18592;49.708;10.900;2022-12-01T09:45:54;99296.78;;;9.17;57.10
21433;BME280;18592;49.708;10.900;2022-12-01T09:48:03;99295.72;;;9.18;57.57
21433;BME280;18592;49.708;10.900;2022-12-01T09:50:15;99297.38;;;9.19;57.20
21433;BME280;18592;49.708;10.900;2022-12-01T09:52:20;99298.00;;;9.21;57.35
21433;BME280;18592;49.708;10.900;2022-12-01T09:54:23;99294.00;;;9.23;57.15
21433;BME280;18592;49.708;10.900;2022-12-01T09:56:26;99291.66;;;9.27;57.42
21433;BME280;18592;49.708;10.900;2022-12-01T09:58:29;99291.44;;;9.28;57.47
21433;BME280;18592;49.708;10.900;2022-12-01T10:00:35;99289.09;;;9.32;57.30
21433;BME280;18592;49.708;10.900;2022-12-01T10:02:42;99282.97;;;9.36;57.71
21433;BME280;18592;49.708;10.900;2022-12-01T10:04:49;99271.03;;;9.37;57.56
21433;BME280;18592;49.708;10.900;2022-12-01T10:07:01;99276.88;;;9.41;57.69
21433;BME280;18592;49.708;10.900;2022-12-01T10:11:33;99264.22;;;9.46;57.59
21433;BME280;18592;49.708;10.900;2022-12-01T10:13:35;99262.72;;;9.50;57.45
21433;BME280;18592;49.708;10.900;2022-12-01T10:20:35;99257.81;;;9.59;57.58
21433;BME280;18592;49.708;10.900;2022-12-01T10:30:18;99247.75;;;9.78;57.90
21433;BME280;18592;49.708;10.900;2022-12-01T10:32:28;99248.13;;;9.81;57.65
21433;BME280;18592;49.708;10.900;2022-12-01T10:34:38;99238.44;;;9.85;57.52
21433;BME280;18592;49.708;10.900;2022-12-01T10:36:40;99236.09;;;9.89;57.61
21433;BME280;18592;49.708;10.900;2022-12-01T10:38:42;99240.84;;;9.93;57.62
21433;BME280;18592;49.708;10.900;2022-12-01T10:40:44;99246.63;;;9.97;57.66
21433;BME280;18592;49.708;10.900;2022-12-01T10:42:47;99245.34;;;9.99;57.50
21433;BME280;18592;49.708;10.900;2022-12-01T10:44:50;99253.06;;;10.02;57.65
21433;BME280;18592;49.708;10.900;2022-12-01T10:46:54;99249.03;;;10.05;57.53
21433;BME280;18592;49.708;10.900;2022-12-01T10:49:06;99243.13;;;10.08;57.40
21433;BME280;18592;49.708;10.900;2022-12-01T10:51:16;99244.81;;;10.09;57.33
21433;BME280;18592;49.708;10.900;2022-12-01T10:55:24;99231.72;;;10.17;57.54
21433;BME280;18592;49.708;10.900;2022-12-01T10:57:30;99243.59;;;10.23;57.31
21433;BME280;18592;49.708;10.900;2022-12-01T10:59:51;99230.56;;;10.25;57.42
21433;BME280;18592;49.708;10.900;2022-12-01T11:01:55;99227.38;;;10.28;57.35
21433;BME280;18592;49.708;10.900;2022-12-01T11:04:06;99227.50;;;10.33;57.42
21433;BME280;18592;49.708;10.900;2022-12-01T11:06:09;99233.31;;;10.37;57.32
21433;BME280;18592;49.708;10.900;2022-12-01T11:08:23;99224.69;;;10.40;57.21
21433;BME280;18592;49.708;10.900;2022-12-01T11:10:29;99227.53;;;10.45;57.30
21433;BME280;18592;49.708;10.900;2022-12-01T11:12:32;99230.03;;;10.46;57.28
21433;BME280;18592;49.708;10.900;2022-12-01T11:14:52;99231.22;;;10.50;57.42
21433;BME280;18592;49.708;10.900;2022-12-01T11:16:54;99219.84;;;10.53;57.50
21433;BME280;18592;49.708;10.900;2022-12-01T11:19:07;99223.78;;;10.57;57.13
21433;BME280;18592;49.708;10.900;2022-12-01T11:21:25;99217.03;;;10.60;57.29
21433;BME280;18592;49.708;10.900;2022-12-01T11:23:27;99220.94;;;10.64;57.33
21433;BME280;18592;49.708;10.900;2022-12-01T11:25:30;99219.38;;;10.68;57.44
21433;BME280;18592;49.708;10.900;2022-12-01T11:27:44;99215.97;;;10.72;57.48
21433;BME280;18592;49.708;10.900;2022-12-01T11:29:51;99216.09;;;10.77;57.44
21433;BME280;18592;49.708;10.900;2022-12-01T11:31:55;99211.56;;;10.83;57.54
21433;BME280;18592;49.708;10.900;2022-12-01T11:33:58;99208.97;;;10.88;57.72
21433;BME280;18592;49.708;10.900;2022-12-01T11:36:00;99208.28;;;10.93;57.38
21433;BME280;18592;49.708;10.900;2022-12-01T11:38:03;99210.63;;;11.01;57.39
21433;BME280;18592;49.708;10.900;2022-12-01T11:40:31;99198.78;;;11.07;57.50